Time;durP1;ratioP1;P1;durP2;ratioP2;P2;SDS_P1;SDS_P2;PMS_P1;PMS_P2;Temp;Humidity;BMP_temperature;BMP_pressure;BME280_temperature;BME280_humidity;BME280_pressure;Samples;Min_cycle;Max_cycle;Signal;HPM_P1;HPM_P2
2023/05/09 00:05:29;;;;;;;2.40;1.77;;;;;;;20.27;43.16;97540.81;10397923;28;20092;-50
2023/05/09 00:10:49;;;;;;;2.75;1.67;;;;;;;20.25;43.18;97530.28;10412951;28;20038;-50
2023/05/09 00:16:09;;;;;;;3.20;1.65;;;;;;;20.24;43.24;97534.09;10408197;28;20545;-48
2023/05/09 00:21:29;;;;;;;3.78;2.30;;;;;;;20.23;43.32;97531.69;10388446;28;20042;-50
2023/05/09 00:26:48;;;;;;;2.88;1.40;;;;;;;20.24;43.32;97533.28;10388456;28;20057;-49
2023/05/09 00:32:08;;;;;;;2.90;1.52;;;;;;;20.22;43.32;97527.41;10391335;28;20042;-49
2023/05/09 00:37:29;;;;;;;2.10;1.60;;;;;;;20.20;43.23;97519.59;10399120;28;20092;-49
2023/05/09 00:42:50;;;;;;;2.47;1.48;;;;;;;20.20;43.42;97513.38;10399044;28;20442;-50
2023/05/09 00:48:09;;;;;;;1.60;1.45;;;;;;;20.19;43.43;97517.19;10387813;28;20061;-50
2023/05/09 00:53:29;;;;;;;1.92;0.90;;;;;;;20.17;43.26;97514.81;10390189;28;20038;-50
2023/05/09 00:58:49;;;;;;;2.65;1.50;;;;;;;20.15;43.33;97512.41;10386114;28;20041;-50
2023/05/09 01:04:09;;;;;;;1.83;1.70;;;;;;;20.14;43.34;97504.59;10392842;28;20429;-50
2023/05/09 01:10:01;;;;;;;1.85;1.38;;;;;;;20.14;43.33;97508.09;10391735;28;20049;-49
2023/05/09 01:15:33;;;;;;;1.70;1.38;;;;;;;20.11;43.38;97500.63;10387463;28;20100;-51
2023/05/09 01:20:57;;;;;;;5.13;1.50;;;;;;;20.11;43.53;97497.09;10392716;28;20073;-49
2023/05/09 01:26:17;;;;;;;1.30;1.20;;;;;;;20.10;43.48;97498.22;10388200;28;20053;-47
2023/05/09 01:31:40;;;;;;;1.58;1.40;;;;;;;20.09;43.45;97493.91;10414025;28;20046;-50
2023/05/09 01:37:01;;;;;;;2.15;1.38;;;;;;;20.09;43.53;97500.13;10397423;28;20050;-47
2023/05/09 01:42:20;;;;;;;2.20;1.42;;;;;;;20.06;43.56;97489.94;10390937;28;20092;-49
2023/05/09 01:47:40;;;;;;;1.55;1.38;;;;;;;20.05;43.50;97493.75;10401603;28;20045;-50
2023/05/09 01:53:00;;;;;;;2.25;1.77;;;;;;;20.04;43.53;97478.63;10390876;28;20045;-50
2023/05/09 01:58:21;;;;;;;1.40;1.30;;;;;;;20.04;43.46;97484.03;10385503;28;20065;-49
2023/05/09 02:03:42;;;;;;;1.30;1.20;;;;;;;20.03;43.45;97470.81;10378928;28;20592;-49
2023/05/09 02:09:01;;;;;;;1.50;1.30;;;;;;;20.02;43.54;97469.22;10382054;28;20042;-50
2023/05/09 02:14:21;;;;;;;1.63;1.50;;;;;;;20.01;43.48;97462.22;10393580;28;20042;-49
2023/05/09 02:19:40;;;;;;;2.03;1.30;;;;;;;20.01;43.43;97467.63;10389210;28;20054;-50
2023/05/09 02:25:02;;;;;;;1.50;1.40;;;;;;;19.99;43.48;97459.81;10403916;28;20108;-50
2023/05/09 02:30:24;;;;;;;1.50;1.40;;;;;;;19.98;43.51;97446.63;10396037;28;20041;-49
2023/05/09 02:35:45;;;;;;;1.27;1.17;;;;;;;19.96;43.44;97444.22;10394417;28;20091;-49
2023/05/09 02:41:05;;;;;;;1.30;1.20;;;;;;;19.95;43.48;97448.84;10378520;28;20123;-48
2023/05/09 02:46:24;;;;;;;1.48;1.30;;;;;;;19.94;43.43;97451.84;10394896;28;20053;-49
2023/05/09 02:51:44;;;;;;;1.40;1.25;;;;;;;19.93;43.59;97445.66;10383099;28;20093;-49
2023/05/09 02:57:04;;;;;;;2.00;1.20;;;;;;;19.93;43.52;97444.84;10392312;28;20038;-50
2023/05/09 03:02:24;;;;;;;1.20;1.10;;;;;;;19.91;43.53;97441.63;10410275;28;20046;-48
2023/05/09 03:07:45;;;;;;;1.30;1.20;;;;;;;19.91;43.54;97452.47;10390421;28;20065;-50
2023/05/09 03:13:04;;;;;;;1.40;1.30;;;;;;;19.89;43.57;97450.06;10412748;28;20041;-48
2023/05/09 03:18:24;;;;;;;1.20;1.10;;;;;;;19.87;43.60;97452.28;10380405;28;20042;-50
2023/05/09 03:23:44;;;;;;;1.33;1.20;;;;;;;19.87;43.49;97446.06;10395963;28;20490;-49
2023/05/09 03:29:04;;;;;;;1.33;1.23;;;;;;;19.86;43.60;97442.59;10405093;28;20053;-50
2023/05/09 03:34:24;;;;;;;1.60;1.20;;;;;;;19.84;43.50;97428.56;10393191;28;20041;-49
2023/05/09 03:39:44;;;;;;;1.15;1.08;;;;;;;19.83;43.51;97434.28;10393138;28;20057;-49
2023/05/09 03:45:04;;;;;;;1.45;1.20;;;;;;;19.82;43.58;97430.78;10401685;28;20045;-47
2023/05/09 03:50:24;;;;;;;2.28;1.25;;;;;;;19.81;43.39;97425.69;10422504;28;20494;-50
2023/05/09 03:55:45;;;;;;;1.35;1.25;;;;;;;19.81;43.44;97434.59;10397663;28;20042;-51
2023/05/09 04:01:06;;;;;;;1.05;0.95;;;;;;;19.79;43.50;97433.31;10422229;28;20045;-49
2023/05/09 04:06:26;;;;;;;1.30;1.15;;;;;;;19.82;43.52;97424.59;10393007;28;20049;-49
2023/05/09 04:11:46;;;;;;;1.20;1.10;;;;;;;19.97;43.36;97432.28;10399611;28;20502;-49
2023/05/09 04:17:07;;;;;;;1.40;1.20;;;;;;;20.05;43.04;97425.31;10390848;28;20046;-48
2023/05/09 04:22:28;;;;;;;1.85;1.67;;;;;;;19.98;42.66;97425.00;10398947;28;20494;-46
2023/05/09 04:27:47;;;;;;;1.30;1.20;;;;;;;19.89;42.52;97423.00;10375243;28;20048;-49
2023/05/09 04:33:08;;;;;;;3.10;1.60;;;;;;;19.86;41.56;97417.47;10407825;28;20504;-48
2023/05/09 04:38:28;;;;;;;5.00;1.83;;;;;;;19.84;41.42;97425.88;10427210;28;20489;-49
2023/05/09 04:43:47;;;;;;;4.50;1.65;;;;;;;19.83;41.30;97418.84;10396458;28;20382;-50
2023/05/09 04:49:07;;;;;;;2.38;1.60;;;;;;;19.84;41.38;97416.97;10388079;28;20045;-50
2023/05/09 04:54:27;;;;;;;2.50;1.50;;;;;;;19.83;41.28;97418.84;10377122;28;20053;-48
2023/05/09 04:59:47;;;;;;;4.32;1.40;;;;;;;19.85;41.78;97408.53;10389121;28;20108;-48
2023/05/09 05:05:08;;;;;;;3.60;1.80;;;;;;;19.87;42.16;97414.41;10397241;28;20042;-49
2023/05/09 05:10:30;;;;;;;5.55;2.30;;;;;;;19.86;40.32;97417.47;10394056;28;20407;-49
2023/05/09 05:16:00;;;;;;;1.38;1.27;;;;;;;19.89;42.03;97420.31;10401832;28;20406;-47
2023/05/09 05:21:20;;;;;;;3.13;1.77;;;;;;;19.90;42.13;97419.22;10402213;28;20045;-48
2023/05/09 05:26:40;;;;;;;2.17;1.50;;;;;;;19.93;42.07;97413.19;10386228;28;20433;-47
2023/05/09 05:32:00;;;;;;;4.03;1.80;;;;;;;19.95;42.25;97408.28;10391818;28;20042;-51
2023/05/09 05:37:19;;;;;;;2.85;1.88;;;;;;;19.97;42.22;97407.94;10384925;28;20042;-49
2023/05/09 05:42:39;;;;;;;4.97;2.05;;;;;;;19.99;42.40;97405.72;10391730;28;20033;-47
2023/05/09 05:48:01;;;;;;;4.13;2.08;;;;;;;20.01;42.45;97406.19;10371554;28;20057;-47
2023/05/09 05:53:22;;;;;;;3.40;1.67;;;;;;;20.03;42.55;97405.91;10399817;28;20038;-49
2023/05/09 05:58:43;;;;;;;2.55;1.60;;;;;;;20.04;42.61;97402.09;10395705;28;20045;-50
2023/05/09 06:04:03;;;;;;;3.45;1.98;;;;;;;20.05;42.67;97399.09;10394724;28;20409;-51
2023/05/09 06:09:25;;;;;;;2.17;1.90;;;;;;;20.09;42.72;97401.94;10401324;28;20505;-50
2023/05/09 06:14:45;;;;;;;3.65;1.88;;;;;;;20.10;42.77;97401.63;10401842;28;20726;-47
2023/05/09 06:20:06;;;;;;;2.65;1.60;;;;;;;20.12;42.82;97407.53;10416934;28;20049;-51
2023/05/09 06:25:26;;;;;;;2.40;1.70;;;;;;;20.15;42.86;97400.72;10432472;28;20095;-49
2023/05/09 06:30:45;;;;;;;4.25;1.70;;;;;;;20.18;42.83;97388.47;10397178;28;20053;-49
2023/05/09 06:36:05;;;;;;;4.10;1.83;;;;;;;20.20;42.97;97388.94;10405365;28;20141;-47
2023/05/09 06:41:25;;;;;;;2.33;1.50;;;;;;;20.20;43.00;97389.72;10406130;28;20045;-49
2023/05/09 06:46:45;;;;;;;2.20;1.83;;;;;;;20.23;42.99;97375.59;10392833;28;20100;-50
2023/05/09 06:52:04;;;;;;;3.85;1.75;;;;;;;20.25;43.00;97378.78;10407049;28;20053;-48
2023/05/09 06:57:24;;;;;;;2.20;1.60;;;;;;;20.26;43.05;97372.25;10406711;28;20088;-49
2023/05/09 07:02:44;;;;;;;2.00;1.60;;;;;;;20.28;43.08;97367.31;10432718;28;20490;-48
2023/05/09 07:08:04;;;;;;;2.50;1.60;;;;;;;20.29;43.09;97360.81;10379003;28;20077;-47
2023/05/09 07:13:23;;;;;;;2.00;1.50;;;;;;;20.31;43.00;97360.50;10419137;28;20041;-50
2023/05/09 07:18:43;;;;;;;2.33;1.65;;;;;;;20.34;43.13;97352.50;10418839;28;20045;-50
2023/05/09 07:24:02;;;;;;;1.65;1.27;;;;;;;20.36;43.12;97354.91;10417429;28;20405;-50
2023/05/09 07:29:22;;;;;;;2.22;1.48;;;;;;;20.37;43.14;97347.63;10431603;28;20049;-50
2023/05/09 07:34:42;;;;;;;1.92;1.67;;;;;;;20.38;43.16;97344.56;10392073;28;20092;-47
2023/05/09 07:40:02;;;;;;;1.48;1.33;;;;;;;20.40;43.12;97338.84;10393891;28;20042;-49
2023/05/09 07:45:21;;;;;;;2.47;1.40;;;;;;;20.42;43.21;97331.22;10416904;28;20049;-49
2023/05/09 07:50:40;;;;;;;1.90;1.65;;;;;;;20.42;43.11;97326.59;10381164;28;20108;-49
2023/05/09 07:56:00;;;;;;;2.05;1.50;;;;;;;20.43;43.19;97322.78;10418083;28;20037;-49
2023/05/09 08:01:19;;;;;;;2.63;1.60;;;;;;;20.44;43.24;97305.41;10421941;28;20045;-49
2023/05/09 08:06:39;;;;;;;2.00;1.48;;;;;;;20.47;43.29;97302.09;10414750;28;20092;-48
2023/05/09 08:11:58;;;;;;;1.60;1.23;;;;;;;20.48;43.18;97297.47;10391944;28;20042;-49
2023/05/09 08:17:18;;;;;;;1.83;1.40;;;;;;;20.48;43.26;97292.88;10400451;28;20548;-48
2023/05/09 08:22:38;;;;;;;2.50;1.45;;;;;;;20.50;43.30;97295.22;10410177;28;20046;-47
2023/05/09 08:27:58;;;;;;;3.55;1.50;;;;;;;20.51;43.25;97294.13;10395061;28;20123;-51
2023/05/09 08:33:18;;;;;;;1.40;1.30;;;;;;;20.52;43.32;97287.59;10428625;28;20038;-49
2023/05/09 08:38:39;;;;;;;1.35;1.25;;;;;;;20.53;43.28;97291.91;10428229;28;20041;-49
2023/05/09 08:43:58;;;;;;;1.70;1.30;;;;;;;20.55;43.37;97282.34;10415109;28;20049;-49
2023/05/09 08:49:19;;;;;;;1.30;1.20;;;;;;;20.55;43.39;97276.13;10406124;28;20056;-48
2023/05/09 08:54:39;;;;;;;2.17;1.38;;;;;;;20.56;43.31;97269.59;10390736;28;20052;-49
2023/05/09 08:59:58;;;;;;;1.30;1.20;;;;;;;20.58;43.33;97258.44;10388880;28;20046;-50
2023/05/09 09:05:18;;;;;;;1.42;1.23;;;;;;;20.58;43.36;97264.69;10419867;28;20493;-51
2023/05/09 09:10:45;;;;;;;1.55;1.30;;;;;;;20.58;43.43;97255.75;10416755;28;20044;-50
2023/05/09 09:16:08;;;;;;;1.40;1.20;;;;;;;20.59;43.36;97251.94;10409709;28;20048;-47
2023/05/09 09:21:28;;;;;;;1.00;1.00;;;;;;;20.58;43.33;97243.03;10389992;28;20046;-48
2023/05/09 09:26:49;;;;;;;1.40;1.30;;;;;;;20.58;43.51;97234.91;10406794;28;20045;-50
2023/05/09 09:32:09;;;;;;;1.20;1.10;;;;;;;20.59;43.49;97241.09;10403674;28;20042;-47
2023/05/09 09:37:33;;;;;;;2.25;1.38;;;;;;;20.58;43.43;97232.19;10386568;28;20042;-49
2023/05/09 09:42:52;;;;;;;1.48;1.35;;;;;;;20.59;43.48;97233.00;10421965;28;20048;-48
2023/05/09 09:48:12;;;;;;;1.52;1.20;;;;;;;20.59;43.47;97227.56;10389445;28;20049;-49
2023/05/09 09:53:38;;;;;;;1.20;1.10;;;;;;;20.58;43.57;97215.97;10408256;28;20407;-50
2023/05/09 09:59:11;;;;;;;1.45;1.35;;;;;;;20.58;43.58;97197.00;10401105;28;20052;-47
2023/05/09 10:04:34;;;;;;;1.50;1.25;;;;;;;20.59;43.60;97195.09;10388761;28;20045;-50
2023/05/09 10:09:54;;;;;;;1.13;1.10;;;;;;;20.58;43.65;97191.59;10417769;28;20401;-49
2023/05/09 10:15:19;;;;;;;1.08;1.02;;;;;;;20.58;43.57;97183.47;10403218;28;20402;-50
2023/05/09 10:20:40;;;;;;;1.30;1.20;;;;;;;20.58;43.71;97182.66;10398081;28;20049;-48
2023/05/09 10:26:16;;;;;;;1.30;1.10;;;;;;;20.59;43.69;97176.16;10412960;28;20045;-48
2023/05/09 10:31:38;;;;;;;1.30;1.20;;;;;;;20.57;43.68;97171.03;10392887;28;20601;-49
2023/05/09 10:36:59;;;;;;;1.02;1.02;;;;;;;20.58;43.78;97161.00;10384852;28;20478;-49
2023/05/09 10:42:19;;;;;;;1.40;1.10;;;;;;;20.57;43.76;97143.97;10393030;28;20045;-49
2023/05/09 10:47:39;;;;;;;1.27;1.17;;;;;;;20.57;43.75;97135.06;10402919;28;20050;-48
2023/05/09 10:53:02;;;;;;;1.13;1.00;;;;;;;20.58;43.87;97128.53;10401396;28;20037;-48
2023/05/09 10:58:32;;;;;;;1.27;1.17;;;;;;;20.56;43.77;97128.84;10411545;28;20049;-48
2023/05/09 11:03:56;;;;;;;1.10;1.00;;;;;;;20.55;43.89;97119.94;10432525;28;20517;-48
2023/05/09 11:09:33;;;;;;;1.17;0.95;;;;;;;20.55;43.89;97109.09;10431730;28;20056;-49
2023/05/09 11:14:54;;;;;;;1.30;1.00;;;;;;;20.55;43.87;97111.03;10432073;28;20501;-51
2023/05/09 11:20:14;;;;;;;0.98;0.90;;;;;;;20.55;43.87;97092.88;10393539;28;20045;-50
2023/05/09 11:25:34;;;;;;;1.00;1.00;;;;;;;20.55;43.94;97098.28;10430403;28;20053;-48
2023/05/09 11:31:08;;;;;;;1.67;1.13;;;;;;;20.54;44.06;97098.59;10392049;28;20046;-48
2023/05/09 11:36:30;;;;;;;1.00;1.00;;;;;;;20.54;44.05;97091.28;10410262;28;20049;-50
2023/05/09 11:41:50;;;;;;;1.10;1.00;;;;;;;20.54;44.01;97063.41;10403963;28;20042;-50
2023/05/09 11:47:10;;;;;;;1.10;1.00;;;;;;;20.54;44.11;97058.00;10404404;28;20049;-48
2023/05/09 11:52:32;;;;;;;1.10;0.95;;;;;;;20.54;44.06;97053.41;10389270;28;20050;-48
2023/05/09 11:57:53;;;;;;;0.90;0.90;;;;;;;20.53;44.06;97046.38;10422562;28;20041;-50
2023/05/09 12:03:13;;;;;;;1.20;1.10;;;;;;;20.52;44.13;97033.16;10411323;28;20045;-49
2023/05/09 12:08:33;;;;;;;1.20;1.10;;;;;;;20.52;44.12;97016.94;10413759;28;20556;-48
2023/05/09 12:13:52;;;;;;;0.90;0.90;;;;;;;20.51;44.24;97009.94;10395633;28;20092;-50
2023/05/09 12:19:12;;;;;;;1.17;1.08;;;;;;;20.52;44.21;97011.53;10389537;28;20096;-49
2023/05/09 12:24:35;;;;;;;1.00;0.90;;;;;;;20.52;44.24;97003.41;10404538;28;20041;-49
2023/05/09 12:29:55;;;;;;;1.02;0.93;;;;;;;20.50;44.22;96986.69;10428796;28;20037;-49
2023/05/09 12:35:15;;;;;;;0.95;0.95;;;;;;;20.50;44.30;96992.09;10428845;28;20052;-50
2023/05/09 12:40:34;;;;;;;1.48;1.13;;;;;;;20.51;44.35;96985.59;10402346;28;20041;-48
2023/05/09 12:45:54;;;;;;;0.80;0.80;;;;;;;20.49;44.25;96974.31;10388292;28;20052;-50
2023/05/09 12:51:20;;;;;;;1.10;1.00;;;;;;;20.50;44.45;96967.75;10416060;28;20057;-50
2023/05/09 12:56:40;;;;;;;1.10;1.00;;;;;;;20.49;44.39;96969.69;10427484;28;20056;-49
2023/05/09 13:02:00;;;;;;;0.85;0.85;;;;;;;20.50;44.48;96954.22;10385719;28;20124;-47
2023/05/09 13:07:20;;;;;;;1.13;1.02;;;;;;;20.48;44.45;96945.63;10428199;28;20051;-50
2023/05/09 13:12:44;;;;;;;1.00;0.90;;;;;;;20.49;44.57;96944.53;10426980;28;20482;-47
2023/05/09 13:18:03;;;;;;;1.20;0.90;;;;;;;20.47;44.53;96934.03;10426852;28;20485;-49
2023/05/09 13:23:23;;;;;;;0.85;0.82;;;;;;;20.50;44.62;96927.16;10397260;28;20041;-47
2023/05/09 13:28:43;;;;;;;0.98;0.75;;;;;;;20.49;44.66;96933.72;10396474;28;20049;-50
2023/05/09 13:34:02;;;;;;;0.65;0.65;;;;;;;20.49;44.75;96922.88;10395017;28;20045;-49
2023/05/09 13:39:22;;;;;;;0.60;0.60;;;;;;;20.47;44.73;96909.69;10426613;28;20413;-49
2023/05/09 13:44:41;;;;;;;0.85;0.85;;;;;;;20.47;44.91;96908.88;10390939;28;20056;-50
2023/05/09 13:50:01;;;;;;;0.80;0.80;;;;;;;20.45;44.88;96898.38;10392224;28;20065;-50
2023/05/09 13:55:20;;;;;;;0.90;0.90;;;;;;;20.47;44.95;96895.34;10386297;28;20042;-48
2023/05/09 14:00:40;;;;;;;0.82;0.82;;;;;;;20.48;44.96;96873.38;10392630;28;20103;-46
2023/05/09 14:06:00;;;;;;;0.80;0.80;;;;;;;20.49;44.96;96860.63;10412620;28;20042;-50
2023/05/09 14:11:20;;;;;;;0.82;0.82;;;;;;;20.49;44.97;96863.34;10406058;28;20402;-50
2023/05/09 14:16:40;;;;;;;0.98;0.80;;;;;;;20.51;44.99;96858.41;10426187;28;20042;-50
2023/05/09 14:22:00;;;;;;;1.27;0.80;;;;;;;20.49;45.11;96839.00;10414182;28;20058;-46
2023/05/09 14:27:20;;;;;;;0.88;0.88;;;;;;;20.49;45.09;96855.22;10433054;28;20038;-47
2023/05/09 14:32:39;;;;;;;0.80;0.80;;;;;;;20.48;45.18;96843.63;10394660;28;20042;-47
2023/05/09 14:38:00;;;;;;;0.75;0.70;;;;;;;20.47;45.30;96819.59;10410251;28;20034;-46
2023/05/09 14:43:21;;;;;;;0.82;0.82;;;;;;;20.47;45.32;96830.41;10432453;28;20517;-49
2023/05/09 14:48:40;;;;;;;0.80;0.80;;;;;;;20.45;45.29;96816.41;10429614;28;20060;-47
2023/05/09 14:54:00;;;;;;;0.75;0.75;;;;;;;20.45;45.38;96811.78;10393582;28;20406;-48
2023/05/09 14:59:20;;;;;;;0.90;0.77;;;;;;;20.49;45.39;96806.53;10415296;28;20045;-50
2023/05/09 15:04:42;;;;;;;0.70;0.70;;;;;;;20.52;45.40;96795.84;10432443;28;20053;-49
2023/05/09 15:10:02;;;;;;;1.10;1.00;;;;;;;20.55;45.46;96791.66;10393143;28;20072;-50
2023/05/09 15:15:22;;;;;;;1.00;0.85;;;;;;;20.55;45.43;96792.44;10432538;28;20070;-49
2023/05/09 15:20:43;;;;;;;0.70;0.70;;;;;;;20.57;45.53;96783.22;10410429;28;20058;-51
2023/05/09 15:26:03;;;;;;;0.65;0.65;;;;;;;20.57;45.45;96785.94;10425653;28;20050;-50
2023/05/09 15:31:24;;;;;;;0.88;0.80;;;;;;;20.58;45.42;96788.31;10398495;28;20041;-46
2023/05/09 15:36:43;;;;;;;0.63;0.63;;;;;;;20.56;45.43;96779.69;10417884;28;20524;-47
2023/05/09 15:42:05;;;;;;;0.70;0.70;;;;;;;20.55;45.53;96778.91;10430889;28;20065;-49
2023/05/09 15:47:25;;;;;;;0.70;0.70;;;;;;;20.55;45.49;96778.13;10423066;28;20046;-48
2023/05/09 15:52:45;;;;;;;2.08;0.70;;;;;;;20.55;45.01;96772.72;10426796;28;20050;-47
2023/05/09 15:58:06;;;;;;;3.83;1.67;;;;;;;20.48;41.78;96767.03;10417349;28;20041;-49
2023/05/09 16:03:26;;;;;;;2.10;1.23;;;;;;;20.45;42.88;96763.09;10429890;28;20045;-48
2023/05/09 16:08:46;;;;;;;3.90;1.35;;;;;;;20.49;43.31;96765.94;10425855;28;20490;-52
2023/05/09 16:14:10;;;;;;;6.47;1.50;;;;;;;20.44;41.59;96755.28;10389418;28;20038;-49
2023/05/09 16:19:29;;;;;;;3.75;1.70;;;;;;;20.40;41.56;96743.56;10417947;28;20410;-48
2023/05/09 16:24:49;;;;;;;2.00;1.80;;;;;;;20.38;40.99;96730.34;10419101;28;20049;-50
2023/05/09 16:30:09;;;;;;;3.25;1.80;;;;;;;20.35;41.26;96737.22;10399425;28;20037;-50
2023/05/09 16:35:29;;;;;;;6.60;2.40;;;;;;;20.33;41.12;96731.34;10407544;28;20041;-52
2023/05/09 16:40:49;;;;;;;4.32;1.92;;;;;;;20.33;40.86;96738.69;10429180;28;20042;-50
2023/05/09 16:46:09;;;;;;;2.58;2.30;;;;;;;20.32;40.06;96726.25;10387805;28;20049;-51
2023/05/09 16:51:29;;;;;;;2.35;1.95;;;;;;;20.31;39.46;96720.06;10384232;28;20053;-49
2023/05/09 16:56:48;;;;;;;4.80;2.30;;;;;;;20.30;38.89;96723.88;10407496;28;20065;-49
2023/05/09 17:02:08;;;;;;;3.25;2.58;;;;;;;20.30;38.44;96709.56;10414159;28;20037;-46
2023/05/09 17:07:28;;;;;;;3.47;2.40;;;;;;;20.28;38.43;96707.19;10387680;28;20052;-51
2023/05/09 17:12:47;;;;;;;3.28;2.80;;;;;;;20.26;37.99;96706.72;10390177;28;20053;-51
2023/05/09 17:18:07;;;;;;;2.80;2.40;;;;;;;20.24;37.76;96703.56;10389967;28;20041;-48
2023/05/09 17:23:26;;;;;;;4.93;2.70;;;;;;;20.22;37.79;96700.41;10396678;28;20072;-47
2023/05/09 17:28:46;;;;;;;18.70;3.00;;;;;;;20.22;37.34;96699.63;10426973;28;20045;-48
2023/05/09 17:34:06;;;;;;;7.85;2.60;;;;;;;20.18;37.30;96704.88;10414175;28;20045;-51
2023/05/09 17:39:25;;;;;;;10.15;2.22;;;;;;;20.15;36.19;96700.94;10426986;28;20041;-52
2023/05/09 17:44:46;;;;;;;29.25;3.90;;;;;;;20.09;36.25;96693.34;10426238;28;20437;-51
2023/05/09 17:50:06;;;;;;;3.10;2.10;;;;;;;20.05;35.80;96690.53;10418929;28;20054;-51
2023/05/09 17:55:25;;;;;;;2.40;2.17;;;;;;;20.01;35.54;96694.19;10418574;28;20421;-50
2023/05/09 18:00:45;;;;;;;4.63;2.25;;;;;;;19.95;35.71;96686.31;10402613;28;20053;-54
2023/05/09 18:06:05;;;;;;;3.42;2.20;;;;;;;19.95;35.41;96685.50;10425099;28;20052;-55
2023/05/09 18:11:25;;;;;;;3.17;2.00;;;;;;;19.90;36.17;96689.19;10439468;28;20478;-55
2023/05/09 18:16:45;;;;;;;3.00;2.40;;;;;;;19.92;38.15;96689.66;10419881;28;20049;-55
2023/05/09 18:22:05;;;;;;;2.38;2.10;;;;;;;19.94;39.30;96678.50;10409112;28;20048;-55
2023/05/09 18:27:24;;;;;;;2.85;2.00;;;;;;;19.97;39.95;96682.47;10438645;28;20045;-56
2023/05/09 18:32:44;;;;;;;2.78;2.17;;;;;;;19.97;40.57;96685.16;10415707;28;20053;-55
2023/05/09 18:38:03;;;;;;;3.70;2.03;;;;;;;19.98;41.08;96675.94;10414637;28;20053;-54
2023/05/09 18:43:23;;;;;;;2.92;2.17;;;;;;;19.97;41.38;96682.47;10405660;28;20129;-50
2023/05/09 18:48:44;;;;;;;4.85;2.20;;;;;;;19.95;41.58;96678.19;10435056;28;20058;-53
2023/05/09 18:54:04;;;;;;;3.20;2.30;;;;;;;19.95;41.31;96678.19;10439127;28;20048;-49
2023/05/09 18:59:23;;;;;;;2.97;2.42;;;;;;;19.93;40.00;96672.31;10439164;28;20049;-50
2023/05/09 19:04:45;;;;;;;2.42;2.20;;;;;;;19.92;42.12;96676.13;10423754;28;20053;-49
2023/05/09 19:10:07;;;;;;;4.60;2.53;;;;;;;19.94;42.64;96681.22;10411476;28;20398;-49
2023/05/09 19:15:26;;;;;;;5.13;2.20;;;;;;;19.94;43.06;96673.09;10431619;28;20052;-49
2023/05/09 19:20:46;;;;;;;2.80;2.30;;;;;;;19.93;43.55;96671.50;10398800;28;20053;-48
2023/05/09 19:26:07;;;;;;;4.63;2.40;;;;;;;19.93;43.67;96672.31;10430691;28;20044;-48
2023/05/09 19:31:27;;;;;;;2.95;2.08;;;;;;;19.92;43.93;96668.03;10431710;28;20045;-50
2023/05/09 19:36:46;;;;;;;2.70;1.80;;;;;;;19.92;44.13;96659.91;10431098;28;20073;-51
2023/05/09 19:42:06;;;;;;;3.88;1.92;;;;;;;19.93;45.33;96655.28;10430773;28;20042;-47
2023/05/09 19:47:26;;;;;;;2.10;1.90;;;;;;;19.93;46.02;96645.28;10420820;28;20046;-49
2023/05/09 19:52:46;;;;;;;4.80;2.40;;;;;;;19.94;46.44;96646.84;10421431;28;20409;-47
2023/05/09 19:58:05;;;;;;;4.72;2.50;;;;;;;19.94;46.86;96644.16;10409154;28;20494;-47
2023/05/09 20:03:25;;;;;;;4.78;2.38;;;;;;;19.94;47.39;96646.84;10430463;28;20042;-50
2023/05/09 20:08:45;;;;;;;4.15;1.50;;;;;;;19.93;47.86;96648.00;10430364;28;20033;-52
2023/05/09 20:14:05;;;;;;;4.55;2.45;;;;;;;19.95;47.87;96639.53;10410074;28;20038;-50
2023/05/09 20:19:24;;;;;;;4.28;2.25;;;;;;;19.94;48.25;96627.94;10412592;28;20126;-48
2023/05/09 20:24:44;;;;;;;2.60;2.10;;;;;;;19.94;48.37;96619.81;10406795;28;20048;-51
2023/05/09 20:30:05;;;;;;;2.97;1.85;;;;;;;19.94;48.80;96614.41;10429087;28;20482;-51
2023/05/09 20:35:24;;;;;;;3.47;1.75;;;;;;;19.93;49.27;96618.25;10428741;28;20045;-50
2023/05/09 20:40:44;;;;;;;3.97;1.95;;;;;;;19.93;49.24;96615.53;10428819;28;20100;-49
2023/05/09 20:46:04;;;;;;;2.75;2.05;;;;;;;19.94;49.98;96611.72;10399463;28;20041;-48
2023/05/09 20:51:23;;;;;;;3.25;2.20;;;;;;;19.94;50.22;96603.59;10416768;28;20410;-47
2023/05/09 20:56:43;;;;;;;4.57;2.60;;;;;;;19.96;50.09;96600.56;10424203;28;20445;-50
2023/05/09 21:02:02;;;;;;;6.43;2.55;;;;;;;19.97;50.38;96591.31;10421331;28;20044;-50
2023/05/09 21:07:22;;;;;;;4.72;2.70;;;;;;;19.97;50.45;96585.13;10405699;28;20123;-46
2023/05/09 21:12:41;;;;;;;7.90;3.00;;;;;;;19.97;50.12;96574.31;10402041;28;20045;-51
2023/05/09 21:18:00;;;;;;;7.35;3.03;;;;;;;19.95;49.96;96566.53;10427370;28;20045;-48
2023/05/09 21:23:20;;;;;;;7.82;2.72;;;;;;;19.94;49.85;96570.38;10426783;28;20037;-48
2023/05/09 21:28:40;;;;;;;14.25;3.70;;;;;;;19.92;49.95;96554.47;10424173;28;20049;-51
2023/05/09 21:33:59;;;;;;;11.88;4.00;;;;;;;19.92;50.13;96557.19;10398095;28;20042;-48
2023/05/09 21:39:19;;;;;;;12.70;4.00;;;;;;;19.92;50.27;96546.38;10426456;28;20075;-51
2023/05/09 21:44:38;;;;;;;11.50;4.10;;;;;;;19.91;50.46;96544.75;10407348;28;20057;-51
2023/05/09 21:49:59;;;;;;;8.45;3.55;;;;;;;19.90;50.34;96540.50;10403642;28;20076;-50
2023/05/09 21:55:18;;;;;;;11.88;4.03;;;;;;;19.90;50.43;96526.19;10417927;28;20049;-50
2023/05/09 22:00:37;;;;;;;7.28;2.85;;;;;;;19.89;50.49;96519.19;10416061;28;20062;-50
2023/05/09 22:05:57;;;;;;;11.50;3.72;;;;;;;19.88;50.54;96518.41;10425786;28;20053;-49
2023/05/09 22:11:16;;;;;;;10.65;4.47;;;;;;;19.88;50.49;96513.00;10388935;28;20288;-49
2023/05/09 22:16:36;;;;;;;11.20;3.53;;;;;;;19.88;50.66;96512.22;10425971;28;20049;-48
2023/05/09 22:21:56;;;;;;;10.18;4.00;;;;;;;19.88;50.77;96512.22;10425808;28;20045;-50
2023/05/09 22:27:15;;;;;;;8.95;3.88;;;;;;;19.87;50.88;96511.41;10409056;28;20045;-50
2023/05/09 22:32:34;;;;;;;12.38;3.97;;;;;;;19.86;51.15;96499.03;10420685;28;20188;-49
2023/05/09 22:37:54;;;;;;;10.90;3.70;;;;;;;19.86;51.28;96490.94;10391288;28;20042;-47
2023/05/09 22:43:14;;;;;;;9.75;3.60;;;;;;;19.85;51.41;96491.25;10385841;28;20054;-50
2023/05/09 22:48:33;;;;;;;8.05;3.70;;;;;;;19.85;51.63;96492.03;10411272;28;20053;-50
2023/05/09 22:53:53;;;;;;;8.43;3.10;;;;;;;19.84;51.50;96484.28;10432988;28;20038;-47
2023/05/09 22:59:12;;;;;;;7.68;3.55;;;;;;;19.84;51.42;96474.25;10402271;28;20489;-49
2023/05/09 23:04:32;;;;;;;8.77;3.58;;;;;;;19.83;51.57;96475.34;10411805;28;20042;-50
2023/05/09 23:09:51;;;;;;;5.93;3.03;;;;;;;19.83;51.42;96461.06;10427778;28;20041;-50
2023/05/09 23:15:11;;;;;;;8.38;3.88;;;;;;;19.82;51.49;96454.88;10402444;28;20099;-50
2023/05/09 23:20:30;;;;;;;6.47;3.38;;;;;;;19.81;51.56;96455.97;10419150;28;20037;-48
2023/05/09 23:25:50;;;;;;;7.72;3.30;;;;;;;19.81;51.57;96458.69;10426491;28;20072;-49
2023/05/09 23:31:09;;;;;;;7.53;3.40;;;;;;;19.79;51.63;96450.13;10402050;28;20049;-50
2023/05/09 23:36:29;;;;;;;8.07;3.30;;;;;;;19.79;51.64;96443.94;10397143;28;20046;-50
2023/05/09 23:41:49;;;;;;;8.07;3.40;;;;;;;19.78;51.72;96432.34;10415879;28;20049;-51
2023/05/09 23:47:08;;;;;;;5.45;3.17;;;;;;;19.77;51.61;96436.16;10379982;28;20050;-50
2023/05/09 23:52:28;;;;;;;7.20;2.85;;;;;;;19.77;51.71;96430.75;10405222;28;20038;-48
2023/05/09 23:57:48;;;;;;;7.43;2.83;;;;;;;19.76;51.64;96429.19;10429939;28;20048;-48
